Time;durP1;ratioP1;P1;durP2;ratioP2;P2;SDS_P1;SDS_P2;PMS_P1;PMS_P2;Temp;Humidity;BMP_temperature;BMP_pressure;BME280_temperature;BME280_humidity;BME280_pressure;Samples;Min_cycle;Max_cycle;Signal;HPM_P1;HPM_P2
2023/05/09 00:00:13;;;;;;;12.10;11.05;;;16.60;99.90;;;;;;5021394;28;20045;-76
2023/05/09 00:02:40;;;;;;;11.68;10.57;;;16.60;99.90;;;;;;5025357;28;20055;-76
2023/05/09 00:05:08;;;;;;;11.60;10.50;;;16.60;99.90;;;;;;5024056;28;20116;-76
2023/05/09 00:07:34;;;;;;;11.98;10.88;;;16.60;99.90;;;;;;5024408;28;20401;-76
2023/05/09 00:10:00;;;;;;;11.50;10.30;;;16.60;99.90;;;;;;5024936;28;20057;-76
2023/05/09 00:12:27;;;;;;;11.90;10.70;;;16.60;99.90;;;;;;5025483;28;20041;-76
2023/05/09 00:14:55;;;;;;;10.57;9.48;;;16.50;99.90;;;;;;5023553;28;20041;-76
2023/05/09 00:17:25;;;;;;;11.38;10.27;;;16.50;99.90;;;;;;5022638;28;20053;-75
2023/05/09 00:19:54;;;;;;;10.57;9.57;;;16.60;99.90;;;;;;5026323;28;20101;-75
2023/05/09 00:22:20;;;;;;;11.32;10.23;;;16.50;99.90;;;;;;5024913;28;20201;-76
2023/05/09 00:24:49;;;;;;;9.90;8.90;;;16.50;99.90;;;;;;5023675;28;20131;-76
2023/05/09 00:27:15;;;;;;;10.13;9.20;;;16.50;99.90;;;;;;5024421;28;20335;-76
2023/05/09 00:29:42;;;;;;;10.40;9.30;;;16.50;99.90;;;;;;5021888;28;20400;-76
2023/05/09 00:32:07;;;;;;;10.70;9.60;;;16.50;99.90;;;;;;5025554;28;20033;-75
2023/05/09 00:34:33;;;;;;;10.15;9.20;;;16.40;99.90;;;;;;5020310;28;20061;-76
2023/05/09 00:36:59;;;;;;;10.73;9.63;;;16.40;99.90;;;;;;5022120;28;20052;-76
2023/05/09 00:39:25;;;;;;;11.05;9.95;;;16.50;99.90;;;;;;5024085;28;20124;-75
2023/05/09 00:41:51;;;;;;;10.95;9.80;;;16.40;99.90;;;;;;5020827;28;20176;-75
2023/05/09 00:44:17;;;;;;;11.15;10.05;;;16.40;99.90;;;;;;5038378;28;20041;-76
2023/05/09 00:46:43;;;;;;;11.90;10.52;;;16.40;99.90;;;;;;5027693;28;20037;-76
2023/05/09 00:49:11;;;;;;;12.02;10.82;;;16.30;99.90;;;;;;5027118;28;20049;-75
2023/05/09 00:51:39;;;;;;;12.32;11.10;;;16.30;99.90;;;;;;5018304;28;20045;-76
2023/05/09 00:54:05;;;;;;;11.75;10.50;;;16.30;99.90;;;;;;5026244;28;20072;-75
2023/05/09 00:56:30;;;;;;;12.63;11.32;;;16.30;99.90;;;;;;5026200;28;20049;-76
2023/05/09 00:58:56;;;;;;;12.73;11.52;;;16.30;99.90;;;;;;5025209;28;20042;-76
2023/05/09 01:01:22;;;;;;;13.20;11.90;;;16.20;99.90;;;;;;5027262;28;20033;-75
2023/05/09 01:03:48;;;;;;;12.52;11.43;;;16.20;99.90;;;;;;5026577;28;20439;-75
2023/05/09 01:06:45;;;;;;;13.45;12.07;;;16.10;99.90;;;;;;5026815;28;20049;-75
2023/05/09 01:09:20;;;;;;;13.75;12.40;;;16.10;99.90;;;;;;5005104;28;20624;-75
2023/05/09 01:12:11;;;;;;;13.43;12.02;;;16.00;99.90;;;;;;5028541;28;20072;-75
2023/05/09 01:14:40;;;;;;;13.98;12.65;;;15.90;99.90;;;;;;5022579;28;20431;-75
2023/05/09 01:17:19;;;;;;;15.85;12.57;;;15.90;99.90;;;;;;5027001;28;20042;-75
2023/05/09 01:20:28;;;;;;;15.98;14.48;;;15.80;99.90;;;;;;5025932;28;20049;-76
2023/05/09 01:23:25;;;;;;;15.75;14.25;;;15.80;99.90;;;;;;5025517;28;20053;-75
2023/05/09 01:26:01;;;;;;;15.88;14.38;;;15.80;99.90;;;;;;5015772;28;20091;-75
2023/05/09 01:28:39;;;;;;;15.88;14.38;;;15.80;99.90;;;;;;5025689;28;20046;-76
2023/05/09 01:31:06;;;;;;;14.38;13.02;;;15.80;99.90;;;;;;5022665;28;20053;-75
2023/05/09 01:33:35;;;;;;;14.73;13.30;;;15.70;99.90;;;;;;5026672;28;20076;-75
2023/05/09 01:36:08;;;;;;;14.98;13.48;;;15.70;99.90;;;;;;5025967;28;20038;-76
2023/05/09 01:38:37;;;;;;;13.85;12.55;;;15.70;99.90;;;;;;5022525;28;20041;-76
2023/05/09 01:41:05;;;;;;;14.38;12.98;;;15.70;99.90;;;;;;5027161;28;20095;-75
2023/05/09 01:43:32;;;;;;;15.82;14.32;;;15.70;99.90;;;;;;5024681;28;20651;-76
2023/05/09 01:45:59;;;;;;;14.68;13.25;;;15.60;99.90;;;;;;5020355;28;20087;-75
2023/05/09 01:48:28;;;;;;;15.40;13.90;;;15.60;99.90;;;;;;5024605;28;20657;-75
2023/05/09 01:50:56;;;;;;;16.35;14.73;;;15.60;99.90;;;;;;5026553;28;20084;-75
2023/05/09 01:53:23;;;;;;;16.00;14.50;;;15.50;99.90;;;;;;5022927;28;20041;-76
2023/05/09 01:55:50;;;;;;;15.75;14.27;;;15.60;99.90;;;;;;5021829;28;20068;-75
2023/05/09 01:58:17;;;;;;;;;;;15.60;99.90;;;;;;5024094;28;20045;-75
2023/05/09 02:00:44;;;;;;;16.60;14.95;;;15.50;99.90;;;;;;5022310;28;19927;-75
2023/05/09 02:03:10;;;;;;;16.33;14.57;;;15.50;99.90;;;;;;5024818;28;20045;-75
2023/05/09 02:05:37;;;;;;;16.25;14.75;;;15.50;99.90;;;;;;5024393;28;20048;-75
2023/05/09 02:08:03;;;;;;;17.48;15.48;;;15.50;99.90;;;;;;5024627;28;20050;-73
2023/05/09 02:10:29;;;;;;;17.48;15.85;;;15.60;99.90;;;;;;5027528;28;20068;-73
2023/05/09 02:12:56;;;;;;;17.80;16.10;;;15.60;99.90;;;;;;5026697;28;20080;-73
2023/05/09 02:15:22;;;;;;;19.00;16.52;;;15.50;99.90;;;;;;5024517;28;20051;-73
2023/05/09 02:17:47;;;;;;;18.83;17.15;;;15.50;99.90;;;;;;5022618;28;20396;-72
2023/05/09 02:20:13;;;;;;;18.58;16.88;;;15.50;99.90;;;;;;5025814;28;20052;-72
2023/05/09 02:22:40;;;;;;;18.48;16.77;;;15.50;99.90;;;;;;5026805;28;20071;-73
2023/05/09 02:25:08;;;;;;;19.60;17.70;;;15.60;99.90;;;;;;5024523;28;20103;-73
2023/05/09 02:27:34;;;;;;;20.90;18.75;;;15.60;99.90;;;;;;5024804;28;20106;-73
2023/05/09 02:30:06;;;;;;;19.88;17.88;;;15.60;99.90;;;;;;5024520;28;20168;-73
2023/05/09 02:32:34;;;;;;;20.17;18.17;;;15.60;99.90;;;;;;5020002;28;20053;-73
2023/05/09 02:35:01;;;;;;;20.02;18.02;;;15.60;99.90;;;;;;5022670;28;20116;-73
2023/05/09 02:37:27;;;;;;;21.15;19.13;;;15.60;99.90;;;;;;5020490;28;20045;-72
2023/05/09 02:39:54;;;;;;;20.80;18.80;;;15.60;99.90;;;;;;5024548;28;20124;-73
2023/05/09 02:42:25;;;;;;;21.90;19.67;;;15.50;99.90;;;;;;5023660;28;20473;-73
2023/05/09 02:44:51;;;;;;;21.88;19.67;;;15.50;99.90;;;;;;5022545;28;20066;-73
2023/05/09 02:47:17;;;;;;;22.03;19.90;;;15.50;99.90;;;;;;5024819;28;20081;-73
2023/05/09 02:49:43;;;;;;;23.00;20.80;;;15.50;99.90;;;;;;5015989;28;20342;-73
2023/05/09 02:52:10;;;;;;;23.30;20.70;;;15.50;99.90;;;;;;5021669;28;20056;-73
2023/05/09 02:54:36;;;;;;;22.20;20.15;;;15.50;99.90;;;;;;5021307;28;20043;-73
2023/05/09 02:57:02;;;;;;;24.05;21.83;;;15.60;99.90;;;;;;5023229;28;20124;-72
2023/05/09 02:59:27;;;;;;;23.20;21.10;;;15.50;99.90;;;;;;5022577;28;20048;-73
2023/05/09 03:01:53;;;;;;;23.95;21.70;;;15.60;99.90;;;;;;5021073;28;20050;-73
2023/05/09 03:04:19;;;;;;;24.48;22.08;;;15.50;99.90;;;;;;5023988;28;20400;-73
2023/05/09 03:06:44;;;;;;;25.02;22.52;;;15.50;99.90;;;;;;5025758;28;20489;-73
2023/05/09 03:09:10;;;;;;;24.50;22.23;;;15.50;99.90;;;;;;5019736;28;20065;-73
2023/05/09 03:11:36;;;;;;;25.10;22.60;;;15.60;99.90;;;;;;5016740;28;20611;-73
2023/05/09 03:14:02;;;;;;;24.88;22.45;;;15.50;99.90;;;;;;5018806;28;20564;-73
2023/05/09 03:16:28;;;;;;;24.98;22.58;;;15.50;99.90;;;;;;5021936;28;20041;-73
2023/05/09 03:18:54;;;;;;;25.70;23.23;;;15.50;99.90;;;;;;5020981;28;20108;-73
2023/05/09 03:21:20;;;;;;;25.98;23.48;;;15.50;99.90;;;;;;5020330;28;20125;-72
2023/05/09 03:23:45;;;;;;;26.13;23.63;;;15.50;99.90;;;;;;5024281;28;20056;-73
2023/05/09 03:26:11;;;;;;;27.42;24.60;;;15.50;99.90;;;;;;5023452;28;20439;-72
2023/05/09 03:28:37;;;;;;;26.50;23.83;;;15.50;99.90;;;;;;5022114;28;20054;-72
2023/05/09 03:31:03;;;;;;;28.23;25.50;;;15.50;99.90;;;;;;5023063;28;20128;-73
2023/05/09 03:33:29;;;;;;;28.23;25.52;;;15.50;99.90;;;;;;5023368;28;20124;-73
2023/05/09 03:35:54;;;;;;;29.60;26.80;;;15.50;99.90;;;;;;5025543;28;20084;-73
2023/05/09 03:38:23;;;;;;;28.55;25.73;;;15.50;99.90;;;;;;5023406;28;20099;-72
2023/05/09 03:40:57;;;;;;;27.52;24.95;;;15.50;99.90;;;;;;5023425;28;20037;-72
2023/05/09 03:43:23;;;;;;;26.30;23.80;;;15.50;99.90;;;;;;5023136;28;20042;-73
2023/05/09 03:45:48;;;;;;;27.70;25.10;;;15.50;99.90;;;;;;5018507;28;20120;-72
2023/05/09 03:48:15;;;;;;;26.38;23.95;;;15.40;99.90;;;;;;5024137;28;20052;-72
2023/05/09 03:50:40;;;;;;;27.30;24.50;;;15.50;99.90;;;;;;5025033;28;20073;-73
2023/05/09 03:53:06;;;;;;;26.60;24.17;;;15.50;99.90;;;;;;5024233;28;20393;-73
2023/05/09 03:55:32;;;;;;;26.83;24.23;;;15.50;99.90;;;;;;5024727;28;20059;-73
2023/05/09 03:57:57;;;;;;;28.20;25.50;;;15.50;99.90;;;;;;5022592;28;20715;-72
2023/05/09 04:00:25;;;;;;;27.45;24.75;;;15.50;99.90;;;;;;5022412;28;20040;-73
2023/05/09 04:02:51;;;;;;;28.55;25.88;;;15.50;99.90;;;;;;5022330;28;20112;-73
2023/05/09 04:05:17;;;;;;;28.15;25.35;;;15.50;99.90;;;;;;5023932;28;20405;-73
2023/05/09 04:07:42;;;;;;;28.30;25.40;;;15.50;99.90;;;;;;5021907;28;20034;-73
2023/05/09 04:10:09;;;;;;;27.35;24.85;;;15.50;99.90;;;;;;5023283;28;20673;-71
2023/05/09 04:12:35;;;;;;;27.97;25.27;;;15.40;99.90;;;;;;5024615;28;20124;-74
2023/05/09 04:15:00;;;;;;;29.27;26.40;;;15.50;99.90;;;;;;5018602;28;20140;-74
2023/05/09 04:17:26;;;;;;;29.55;26.65;;;15.50;99.90;;;;;;5027792;28;20042;-74
2023/05/09 04:19:52;;;;;;;28.98;26.13;;;15.50;99.90;;;;;;5027330;28;20477;-74
2023/05/09 04:22:17;;;;;;;29.00;26.10;;;15.50;99.90;;;;;;5022922;28;20050;-74
2023/05/09 04:24:43;;;;;;;28.05;25.45;;;15.50;99.90;;;;;;5025848;28;20042;-74
2023/05/09 04:27:09;;;;;;;28.95;25.95;;;15.40;99.90;;;;;;5027833;28;20099;-74
2023/05/09 04:29:35;;;;;;;29.10;26.27;;;15.40;99.90;;;;;;5013997;28;20120;-74
2023/05/09 04:32:01;;;;;;;28.63;25.85;;;15.40;99.90;;;;;;5027597;28;20045;-74
2023/05/09 04:34:28;;;;;;;28.80;26.00;;;15.50;99.90;;;;;;5026148;28;20045;-74
2023/05/09 04:36:54;;;;;;;29.45;26.65;;;15.50;99.90;;;;;;5025868;28;20147;-74
2023/05/09 04:39:20;;;;;;;29.80;26.80;;;15.50;99.90;;;;;;5024981;28;20121;-73
2023/05/09 04:41:46;;;;;;;31.23;28.10;;;15.50;99.90;;;;;;5025728;28;20046;-73
2023/05/09 04:44:16;;;;;;;29.25;26.25;;;15.50;99.90;;;;;;5022719;28;20037;-74
2023/05/09 04:46:42;;;;;;;29.50;26.60;;;15.50;99.90;;;;;;5025091;28;20581;-74
2023/05/09 04:49:08;;;;;;;29.67;26.67;;;15.50;99.90;;;;;;5025482;28;20048;-74
2023/05/09 04:51:33;;;;;;;30.73;27.60;;;15.50;99.90;;;;;;5028641;28;20045;-74
2023/05/09 04:53:59;;;;;;;31.70;28.40;;;15.50;99.90;;;;;;5025550;28;20057;-74
2023/05/09 04:56:25;;;;;;;30.92;27.83;;;15.50;99.90;;;;;;5024102;28;20045;-74
2023/05/09 04:58:51;;;;;;;32.05;28.83;;;15.50;99.90;;;;;;5027111;28;20049;-74
2023/05/09 05:01:17;;;;;;;30.30;27.20;;;15.50;99.90;;;;;;5028905;28;20109;-74
2023/05/09 05:03:43;;;;;;;31.52;28.40;;;15.50;99.90;;;;;;5028339;28;20112;-74
2023/05/09 05:06:09;;;;;;;31.35;28.27;;;15.60;99.90;;;;;;5024729;28;20033;-74
2023/05/09 05:08:34;;;;;;;29.85;26.98;;;15.60;99.90;;;;;;5027359;28;20040;-74
2023/05/09 05:11:00;;;;;;;31.10;28.15;;;15.60;99.90;;;;;;5026678;28;20045;-74
2023/05/09 05:13:26;;;;;;;29.77;26.95;;;15.60;99.90;;;;;;5023304;28;20048;-74
2023/05/09 05:15:51;;;;;;;30.50;27.55;;;15.70;99.90;;;;;;5024773;28;20128;-74
2023/05/09 05:18:17;;;;;;;30.77;27.67;;;15.70;99.90;;;;;;5028590;28;20041;-74
2023/05/09 05:20:43;;;;;;;31.08;28.08;;;15.70;99.90;;;;;;5028382;28;20129;-74
2023/05/09 05:23:09;;;;;;;31.88;28.75;;;15.70;99.90;;;;;;5028825;28;20053;-74
2023/05/09 05:25:35;;;;;;;31.38;28.13;;;15.80;99.90;;;;;;5026096;28;20125;-74
2023/05/09 05:28:03;;;;;;;31.40;28.35;;;15.80;99.90;;;;;;5027250;28;20152;-74
2023/05/09 05:30:29;;;;;;;31.38;28.23;;;15.80;99.90;;;;;;5022253;28;20041;-74
2023/05/09 05:32:54;;;;;;;31.63;28.50;;;15.80;99.90;;;;;;5020323;28;20045;-75
2023/05/09 05:35:22;;;;;;;30.48;27.38;;;15.90;99.90;;;;;;5027425;28;20075;-75
2023/05/09 05:37:48;;;;;;;30.58;27.52;;;15.90;99.90;;;;;;5028413;28;20045;-75
2023/05/09 05:40:13;;;;;;;31.13;27.90;;;15.90;99.90;;;;;;5021972;28;20096;-73
2023/05/09 05:43:04;;;;;;;32.15;28.65;;;15.90;99.90;;;;;;5027259;28;20044;-75
2023/05/09 05:45:30;;;;;;;30.77;27.85;;;15.90;99.90;;;;;;5022605;28;20034;-74
2023/05/09 05:47:55;;;;;;;32.08;28.92;;;15.90;99.90;;;;;;5019185;28;20196;-74
2023/05/09 05:50:21;;;;;;;31.08;28.15;;;15.90;99.90;;;;;;5022723;28;20091;-73
2023/05/09 05:52:47;;;;;;;32.40;29.30;;;15.90;99.90;;;;;;5026515;28;20042;-73
2023/05/09 05:55:13;;;;;;;30.65;27.65;;;15.90;99.90;;;;;;5019194;28;20384;-73
2023/05/09 05:57:38;;;;;;;30.10;27.08;;;15.90;99.90;;;;;;5021588;28;20046;-74
2023/05/09 06:00:15;;;;;;;31.60;28.45;;;15.90;99.90;;;;;;5009808;28;20069;-74
2023/05/09 06:02:46;;;;;;;30.65;27.65;;;15.90;99.90;;;;;;5020997;28;20063;-74
2023/05/09 06:05:12;;;;;;;30.73;27.60;;;15.90;99.90;;;;;;5028631;28;20524;-74
2023/05/09 06:07:40;;;;;;;29.70;26.75;;;15.90;99.90;;;;;;5017522;28;20124;-74
2023/05/09 06:10:06;;;;;;;29.35;26.65;;;15.90;99.90;;;;;;5021493;28;20049;-74
2023/05/09 06:12:32;;;;;;;31.77;28.67;;;15.90;99.90;;;;;;5021279;28;20061;-74
2023/05/09 06:14:58;;;;;;;30.65;27.55;;;15.90;99.90;;;;;;5020413;28;20045;-73
2023/05/09 06:17:24;;;;;;;30.52;27.63;;;15.90;99.90;;;;;;5024057;28;20473;-74
2023/05/09 06:19:49;;;;;;;29.00;26.20;;;15.90;99.90;;;;;;5021758;28;20048;-74
2023/05/09 06:22:15;;;;;;;28.95;25.92;;;15.90;99.90;;;;;;5024036;28;20038;-74
2023/05/09 06:24:41;;;;;;;30.42;27.40;;;15.90;99.90;;;;;;5018186;28;20493;-74
2023/05/09 06:27:07;;;;;;;30.75;27.88;;;15.90;99.90;;;;;;5013079;28;20796;-74
2023/05/09 06:29:33;;;;;;;30.90;27.90;;;15.90;99.90;;;;;;5023592;28;20045;-74
2023/05/09 06:31:58;;;;;;;29.55;26.70;;;15.90;99.90;;;;;;5023293;28;20052;-74
2023/05/09 06:34:24;;;;;;;29.73;26.85;;;15.90;99.90;;;;;;5014971;28;20052;-74
2023/05/09 06:36:50;;;;;;;29.58;26.58;;;15.90;99.90;;;;;;5019906;28;20120;-74
2023/05/09 06:39:15;;;;;;;29.95;27.20;;;15.90;99.90;;;;;;5017466;28;20045;-74
2023/05/09 06:41:44;;;;;;;30.48;27.42;;;15.90;99.90;;;;;;5017494;28;20053;-74
2023/05/09 06:44:10;;;;;;;29.85;27.02;;;15.90;99.90;;;;;;5025774;28;20042;-74
2023/05/09 06:46:36;;;;;;;30.25;27.25;;;15.90;99.90;;;;;;5021321;28;20039;-74
2023/05/09 06:49:02;;;;;;;29.65;26.75;;;15.90;99.90;;;;;;5024609;28;20124;-74
2023/05/09 06:51:31;;;;;;;31.23;28.13;;;15.90;99.90;;;;;;5023825;28;20041;-74
2023/05/09 06:53:57;;;;;;;30.10;27.15;;;15.90;99.90;;;;;;5024524;28;20041;-74
2023/05/09 06:56:24;;;;;;;32.00;29.00;;;15.90;99.90;;;;;;5025477;28;20053;-74
2023/05/09 06:58:50;;;;;;;31.25;28.15;;;15.90;99.90;;;;;;5020067;28;20508;-74
2023/05/09 07:01:16;;;;;;;30.08;27.15;;;15.90;99.90;;;;;;5024633;28;20658;-75
2023/05/09 07:03:42;;;;;;;30.15;27.35;;;16.00;99.90;;;;;;5017798;28;20049;-75
2023/05/09 07:06:08;;;;;;;31.23;27.95;;;16.00;99.90;;;;;;5022466;28;20542;-75
2023/05/09 07:08:34;;;;;;;31.20;28.17;;;16.10;99.90;;;;;;5021834;28;20144;-75
2023/05/09 07:10:59;;;;;;;31.40;28.33;;;16.10;99.90;;;;;;5018566;28;20034;-76
2023/05/09 07:13:25;;;;;;;31.42;28.33;;;16.20;99.90;;;;;;5023077;28;20060;-75
2023/05/09 07:15:51;;;;;;;32.20;28.88;;;16.20;99.90;;;;;;5017943;28;20505;-75
2023/05/09 07:18:16;;;;;;;32.72;29.50;;;16.30;99.90;;;;;;5020265;28;20056;-78
2023/05/09 07:20:42;;;;;;;31.95;28.83;;;16.30;99.90;;;;;;5025436;28;20595;-71
2023/05/09 07:23:08;;;;;;;31.42;28.33;;;16.30;99.90;;;;;;5007211;28;20054;-77
2023/05/09 07:25:33;;;;;;;30.50;27.30;;;16.20;99.90;;;;;;5023636;28;20045;-74
2023/05/09 07:27:59;;;;;;;31.75;28.58;;;16.30;99.90;;;;;;5026192;28;20049;-75
2023/05/09 07:30:25;;;;;;;31.98;28.65;;;16.30;99.90;;;;;;5026031;28;20044;-74
2023/05/09 07:32:51;;;;;;;32.70;29.35;;;16.20;99.90;;;;;;5020982;28;20124;-75
2023/05/09 07:35:18;;;;;;;33.72;30.23;;;16.20;99.90;;;;;;5024864;28;20037;-76
2023/05/09 07:37:43;;;;;;;31.58;28.40;;;16.20;99.90;;;;;;5024641;28;20393;-73
2023/05/09 07:40:09;;;;;;;34.47;29.75;;;16.20;99.90;;;;;;5024595;28;20046;-75
2023/05/09 07:42:35;;;;;;;32.38;29.17;;;16.30;99.90;;;;;;5025064;28;20053;-74
2023/05/09 07:45:04;;;;;;;34.25;30.15;;;16.30;99.90;;;;;;5020700;28;20413;-73
2023/05/09 07:47:30;;;;;;;32.58;29.42;;;16.30;99.90;;;;;;5024541;28;20077;-73
2023/05/09 07:49:56;;;;;;;33.55;29.88;;;16.40;99.90;;;;;;5024741;28;20045;-74
2023/05/09 07:52:22;;;;;;;33.25;29.95;;;16.40;99.90;;;;;;5022442;28;20132;-73
2023/05/09 07:54:48;;;;;;;33.47;29.92;;;16.50;99.90;;;;;;5022076;28;20500;-73
2023/05/09 07:57:13;;;;;;;34.08;30.58;;;16.60;99.90;;;;;;5026231;28;20664;-74
2023/05/09 07:59:39;;;;;;;33.22;29.80;;;16.60;99.90;;;;;;5024133;28;20051;-73
2023/05/09 08:02:05;;;;;;;34.85;31.30;;;16.70;99.90;;;;;;5025189;28;20547;-73
2023/05/09 08:04:31;;;;;;;34.55;31.15;;;16.70;99.90;;;;;;5024124;28;20049;-73
2023/05/09 08:06:58;;;;;;;35.20;31.48;;;16.80;99.90;;;;;;5022788;28;20033;-73
2023/05/09 08:09:25;;;;;;;38.88;34.70;;;16.90;99.90;;;;;;5020574;28;20056;-73
2023/05/09 08:11:51;;;;;;;35.78;31.75;;;16.90;99.90;;;;;;5023674;28;20045;-73
2023/05/09 08:14:16;;;;;;;40.83;36.35;;;17.10;99.90;;;;;;5018049;28;20092;-75
2023/05/09 08:16:42;;;;;;;43.92;36.83;;;17.20;99.90;;;;;;5024126;28;20076;-72
2023/05/09 08:19:08;;;;;;;40.25;35.78;;;17.30;99.90;;;;;;5020331;28;20045;-75
2023/05/09 08:21:34;;;;;;;41.75;37.13;;;17.40;99.90;;;;;;5014855;28;20454;-75
2023/05/09 08:24:00;;;;;;;41.92;35.28;;;17.50;99.90;;;;;;5020650;28;20061;-76
2023/05/09 08:26:26;;;;;;;42.13;36.67;;;17.60;99.90;;;;;;5016355;28;20041;-77
2023/05/09 08:28:53;;;;;;;45.92;37.97;;;17.60;99.90;;;;;;5024183;28;20388;-75
2023/05/09 08:31:18;;;;;;;47.27;37.87;;;17.60;99.90;;;;;;5025169;28;20038;-74
2023/05/09 08:33:44;;;;;;;41.72;36.45;;;17.70;99.90;;;;;;5023712;28;20299;-76
2023/05/09 08:36:10;;;;;;;43.85;36.53;;;17.70;99.90;;;;;;5021342;28;20069;-75
2023/05/09 08:38:38;;;;;;;40.80;36.15;;;17.70;99.90;;;;;;5025520;28;20492;-75
2023/05/09 08:41:03;;;;;;;42.20;36.63;;;17.70;99.90;;;;;;5022765;28;20045;-75
2023/05/09 08:43:32;;;;;;;42.65;35.85;;;17.60;99.90;;;;;;5019247;28;20033;-73
2023/05/09 08:46:01;;;;;;;45.05;37.33;;;17.60;99.90;;;;;;5013391;28;20053;-76
2023/05/09 08:48:27;;;;;;;51.00;38.45;;;17.60;99.90;;;;;;5025434;28;20073;-74
2023/05/09 08:50:55;;;;;;;45.88;38.15;;;17.50;99.90;;;;;;5023001;28;20784;-74
2023/05/09 08:53:21;;;;;;;47.97;37.65;;;17.50;99.90;;;;;;5022617;28;20033;-75
2023/05/09 08:55:48;;;;;;;45.67;38.97;;;17.50;99.90;;;;;;5023875;28;20102;-74
2023/05/09 08:58:15;;;;;;;45.10;37.38;;;17.50;99.90;;;;;;5024691;28;20398;-77
2023/05/09 09:00:41;;;;;;;45.35;37.17;;;17.50;99.90;;;;;;5023882;28;20498;-75
2023/05/09 09:03:07;;;;;;;44.25;38.33;;;17.50;99.90;;;;;;5023943;28;20116;-76
2023/05/09 09:05:36;;;;;;;45.92;37.63;;;17.50;99.90;;;;;;5024735;28;20060;-73
2023/05/09 09:08:02;;;;;;;47.50;39.33;;;17.50;99.90;;;;;;5026115;28;20060;-75
2023/05/09 09:10:31;;;;;;;43.53;38.70;;;17.50;99.90;;;;;;5021357;28;20056;-71
2023/05/09 09:12:58;;;;;;;47.42;39.40;;;17.50;99.90;;;;;;5016443;28;20192;-74
2023/05/09 09:15:29;;;;;;;44.53;38.80;;;17.50;99.90;;;;;;5024597;28;20499;-71
2023/05/09 09:17:57;;;;;;;47.88;38.88;;;17.50;99.90;;;;;;5023472;28;20090;-72
2023/05/09 09:20:26;;;;;;;46.97;39.75;;;17.50;99.90;;;;;;5029202;28;20052;-72
2023/05/09 09:22:57;;;;;;;50.85;40.63;;;17.50;99.90;;;;;;5023377;28;20061;-71
2023/05/09 09:25:23;;;;;;;47.40;40.03;;;17.50;99.90;;;;;;5025326;28;20045;-74
2023/05/09 09:27:49;;;;;;;46.47;39.45;;;17.50;99.90;;;;;;5026675;28;20033;-74
2023/05/09 09:30:15;;;;;;;48.42;40.55;;;17.60;99.90;;;;;;5019325;28;20041;-71
2023/05/09 09:32:41;;;;;;;48.00;41.17;;;17.60;99.90;;;;;;5025802;28;20049;-70
2023/05/09 09:35:08;;;;;;;47.50;40.05;;;17.70;99.90;;;;;;5026056;28;20472;-71
2023/05/09 09:37:35;;;;;;;54.20;41.42;;;17.70;99.90;;;;;;5025396;28;20057;-71
2023/05/09 09:40:01;;;;;;;53.38;42.05;;;17.70;99.90;;;;;;5024634;28;20072;-70
2023/05/09 09:42:40;;;;;;;51.37;40.50;;;17.80;99.90;;;;;;5018989;28;20175;-70
2023/05/09 09:45:09;;;;;;;54.78;43.03;;;17.80;99.90;;;;;;5017548;28;20299;-70
2023/05/09 09:47:35;;;;;;;54.80;42.13;;;17.80;99.90;;;;;;5013821;28;20838;-70
2023/05/09 09:50:10;;;;;;;60.78;44.20;;;17.80;99.90;;;;;;5009198;28;20045;-72
2023/05/09 09:52:40;;;;;;;56.85;43.45;;;17.80;99.90;;;;;;5024652;28;20060;-73
2023/05/09 09:55:06;;;;;;;55.35;43.08;;;18.00;99.90;;;;;;5026191;28;20045;-71
2023/05/09 09:57:37;;;;;;;60.00;44.38;;;18.10;99.90;;;;;;5026746;28;20041;-75
2023/05/09 10:00:18;;;;;;;59.40;41.75;;;18.30;99.90;;;;;;5026378;28;20069;-74
2023/05/09 10:02:55;;;;;;;58.25;42.78;;;18.40;99.90;;;;;;5022364;28;20080;-72
2023/05/09 10:05:27;;;;;;;53.15;41.45;;;18.50;99.90;;;;;;5021278;28;20069;-76
2023/05/09 10:07:56;;;;;;;59.08;43.72;;;18.50;99.90;;;;;;5025635;28;20049;-74
2023/05/09 10:10:22;;;;;;;57.92;43.38;;;18.50;99.90;;;;;;5023670;28;20045;-75
2023/05/09 10:12:50;;;;;;;59.75;42.85;;;18.50;99.90;;;;;;5019886;28;20033;-74
2023/05/09 10:15:20;;;;;;;57.88;43.33;;;18.40;99.90;;;;;;5026595;28;20056;-75
2023/05/09 10:17:50;;;;;;;54.50;40.83;;;18.40;99.90;;;;;;5023415;28;20038;-75
2023/05/09 10:20:17;;;;;;;54.22;42.60;;;18.40;99.90;;;;;;5026778;28;20041;-73
2023/05/09 10:22:42;;;;;;;60.78;42.05;;;18.50;99.90;;;;;;5025660;28;20061;-74
2023/05/09 10:25:20;;;;;;;65.07;44.83;;;18.70;99.90;;;;;;5022583;28;20264;-76
2023/05/09 10:27:47;;;;;;;64.88;44.42;;;18.80;99.90;;;;;;5011816;28;20099;-73
2023/05/09 10:30:25;;;;;;;59.38;44.47;;;19.00;99.90;;;;;;5022229;28;20088;-73
2023/05/09 10:33:01;;;;;;;63.63;45.88;;;19.00;99.90;;;;;;5025179;28;20055;-72
2023/05/09 10:35:31;;;;;;;69.20;47.65;;;19.10;99.90;;;;;;5025616;28;20114;-73
2023/05/09 10:37:58;;;;;;;68.07;46.95;;;19.20;99.90;;;;;;5026564;28;21012;-73
2023/05/09 10:40:26;;;;;;;72.88;48.08;;;19.30;99.90;;;;;;5021458;28;20060;-72
2023/05/09 10:42:52;;;;;;;71.20;48.45;;;19.30;99.90;;;;;;5023323;28;20041;-72
2023/05/09 10:45:20;;;;;;;75.25;49.65;;;19.30;99.90;;;;;;5024919;28;20045;-72
2023/05/09 10:47:48;;;;;;;81.18;52.60;;;19.40;99.90;;;;;;5021907;28;20056;-72
2023/05/09 10:50:16;;;;;;;84.10;54.80;;;19.50;99.90;;;;;;5012040;28;20052;-73
2023/05/09 10:53:03;;;;;;;86.20;54.35;;;19.50;99.90;;;;;;5023063;28;20041;-75
2023/05/09 10:55:55;;;;;;;83.82;55.85;;;19.60;99.90;;;;;;5022709;28;20132;-74
2023/05/09 10:58:26;;;;;;;83.65;54.45;;;19.70;99.90;;;;;;5022485;28;20471;-74
2023/05/09 11:00:59;;;;;;;87.53;56.75;;;19.70;99.90;;;;;;5020457;28;20057;-72
2023/05/09 11:03:26;;;;;;;83.65;53.58;;;19.80;99.90;;;;;;5019275;28;20111;-71
2023/05/09 11:05:56;;;;;;;89.80;56.60;;;20.00;99.90;;;;;;5020699;28;20795;-71
2023/05/09 11:08:27;;;;;;;81.43;53.85;;;20.00;99.90;;;;;;5025240;28;20416;-72
2023/05/09 11:10:59;;;;;;;84.70;56.70;;;20.20;99.90;;;;;;5024413;28;20108;-72
2023/05/09 11:13:29;;;;;;;78.47;53.45;;;20.30;99.90;;;;;;5026097;28;20049;-72
2023/05/09 11:15:58;;;;;;;79.82;53.33;;;20.50;99.90;;;;;;5022933;28;20033;-71
2023/05/09 11:18:24;;;;;;;80.55;56.88;;;20.60;99.90;;;;;;5024367;28;20088;-70
2023/05/09 11:20:50;;;;;;;80.53;53.63;;;20.60;99.90;;;;;;5019764;28;20045;-71
2023/05/09 11:23:20;;;;;;;76.88;54.63;;;20.70;99.90;;;;;;5024341;28;20057;-71
2023/05/09 11:25:47;;;;;;;79.65;55.97;;;20.70;99.90;;;;;;5023979;28;20417;-71
2023/05/09 11:28:30;;;;;;;77.45;56.75;;;20.80;99.90;;;;;;5024743;28;20288;-71
2023/05/09 11:31:22;;;;;;;77.88;56.88;;;20.80;99.90;;;;;;5022632;28;20049;-71
2023/05/09 11:33:53;;;;;;;80.38;57.35;;;20.80;99.90;;;;;;5022330;28;20049;-71
2023/05/09 11:36:24;;;;;;;81.72;57.50;;;20.80;99.90;;;;;;5021955;28;20069;-72
2023/05/09 11:39:00;;;;;;;78.88;56.63;;;20.70;99.90;;;;;;5018273;28;20112;-71
2023/05/09 11:41:26;;;;;;;77.45;55.25;;;20.60;99.90;;;;;;5017848;28;20043;-71
2023/05/09 11:43:54;;;;;;;77.18;54.10;;;20.40;99.90;;;;;;5024130;28;20045;-73
2023/05/09 11:46:19;;;;;;;;;;;20.30;99.90;;;;;;5023138;28;20072;-70
2023/05/09 11:48:49;;;;;;;74.17;53.77;;;20.20;99.90;;;;;;5021590;28;19972;-70
2023/05/09 11:51:16;;;;;;;75.57;53.20;;;20.20;99.90;;;;;;5015341;28;20099;-70
2023/05/09 11:53:49;;;;;;;78.93;54.63;;;20.10;99.90;;;;;;5013039;28;20049;-70
2023/05/09 11:56:15;;;;;;;77.07;53.70;;;20.00;99.90;;;;;;5019807;28;20037;-69
2023/05/09 11:58:42;;;;;;;77.60;54.00;;;19.90;99.90;;;;;;5021339;28;20143;-71
2023/05/09 12:01:10;;;;;;;81.70;56.05;;;19.90;99.90;;;;;;5017732;28;20033;-73
2023/05/09 12:03:41;;;;;;;;;;;19.80;99.90;;;;;;5021891;28;20037;-72
2023/05/09 12:06:07;;;;;;;82.63;57.60;;;19.50;99.90;;;;;;5020886;28;19930;-75
2023/05/09 12:08:33;;;;;;;82.82;59.92;;;19.40;99.90;;;;;;5013516;28;20053;-77
2023/05/09 12:11:08;;;;;;;75.70;59.28;;;19.30;99.90;;;;;;5017436;28;20048;-76
2023/05/09 12:13:34;;;;;;;75.43;59.75;;;19.20;99.90;;;;;;5021340;28;20092;-75
2023/05/09 12:16:03;;;;;;;74.03;60.80;;;19.10;99.90;;;;;;5023937;28;20042;-74
2023/05/09 12:18:28;;;;;;;80.70;61.30;;;19.00;99.90;;;;;;5021925;28;20084;-76
2023/05/09 12:20:54;;;;;;;85.05;64.32;;;19.00;99.90;;;;;;5025096;28;20374;-75
2023/05/09 12:23:20;;;;;;;78.15;62.53;;;18.90;99.90;;;;;;5016419;28;20053;-74
2023/05/09 12:25:53;;;;;;;79.70;63.80;;;18.90;99.90;;;;;;5017725;28;20434;-76
2023/05/09 12:28:21;;;;;;;78.80;61.25;;;18.90;99.90;;;;;;5017254;28;20045;-73
2023/05/09 12:30:48;;;;;;;78.85;63.15;;;18.90;99.90;;;;;;5016835;28;20664;-74